Time;durP1;ratioP1;P1;durP2;ratioP2;P2;SDS_P1;SDS_P2;PMS_P1;PMS_P2;Temp;Humidity;BMP_temperature;BMP_pressure;BME280_temperature;BME280_humidity;BME280_pressure;Samples;Min_cycle;Max_cycle;Signal;HPM_P1;HPM_P2
2021/06/20 00:00:36;;;;;;;14.20;13.10;;;26.20;92.70;;;;;;6163102;23;20722;-86
2021/06/20 00:03:06;;;;;;;13.80;12.37;;;26.20;92.90;;;;;;6163085;23;20432;-86
2021/06/20 00:05:35;;;;;;;12.17;11.37;;;26.20;93.10;;;;;;6163064;23;20504;-85
2021/06/20 00:08:04;;;;;;;13.30;12.10;;;26.20;93.00;;;;;;6138198;23;20407;-85
2021/06/20 00:10:32;;;;;;;12.20;11.30;;;26.10;92.10;;;;;;6163437;23;20448;-85
2021/06/20 00:13:00;;;;;;;11.57;10.77;;;26.10;92.20;;;;;;6163315;23;20410;-85
2021/06/20 00:15:28;;;;;;;12.17;11.17;;;26.10;92.30;;;;;;6164193;23;20408;-86
2021/06/20 00:17:55;;;;;;;13.17;11.97;;;26.10;92.00;;;;;;6163110;23;20928;-85
2021/06/20 00:20:26;;;;;;;14.03;12.93;;;26.00;91.90;;;;;;6162483;23;20456;-85
2021/06/20 00:22:53;;;;;;;15.60;14.37;;;26.00;92.30;;;;;;6161939;23;20445;-85
2021/06/20 00:25:20;;;;;;;13.80;12.50;;;25.80;93.90;;;;;;6163254;23;20541;-85
2021/06/20 00:27:47;;;;;;;12.00;11.10;;;25.80;93.60;;;;;;6163873;23;20947;-85
2021/06/20 00:30:19;;;;;;;11.30;10.40;;;25.60;93.10;;;;;;6163204;23;20469;-85
2021/06/20 00:32:46;;;;;;;13.00;12.10;;;25.70;92.90;;;;;;6164259;23;20485;-85
2021/06/20 00:35:15;;;;;;;12.67;11.67;;;25.60;93.00;;;;;;6165046;23;20406;-85
2021/06/20 00:37:43;;;;;;;12.83;11.77;;;25.60;93.10;;;;;;6164526;23;20423;-86
2021/06/20 00:40:11;;;;;;;12.13;11.00;;;25.60;93.10;;;;;;6165869;23;20734;-86
2021/06/20 00:42:38;;;;;;;13.20;12.30;;;25.60;93.10;;;;;;6165245;23;20449;-85
2021/06/20 00:45:07;;;;;;;13.03;11.93;;;25.60;93.30;;;;;;6164240;23;20469;-85
2021/06/20 00:47:34;;;;;;;13.33;11.00;;;25.60;93.40;;;;;;6163125;23;20417;-86
2021/06/20 00:50:01;;;;;;;14.20;12.77;;;25.50;93.40;;;;;;6164166;23;20451;-85
2021/06/20 00:52:29;;;;;;;12.67;11.10;;;25.60;93.30;;;;;;6163850;23;20465;-85
2021/06/20 00:54:58;;;;;;;12.37;11.17;;;25.60;93.30;;;;;;6163525;23;20396;-86
2021/06/20 00:57:25;;;;;;;12.50;11.20;;;25.60;93.30;;;;;;6164287;23;20417;-86
2021/06/20 00:59:53;;;;;;;15.30;11.77;;;25.60;93.10;;;;;;6163470;23;20990;-86
2021/06/20 01:02:21;;;;;;;11.60;10.27;;;25.60;93.00;;;;;;6163455;23;20435;-85
2021/06/20 01:04:50;;;;;;;21.93;12.47;;;25.60;92.30;;;;;;6164832;23;20456;-85
2021/06/20 01:07:18;;;;;;;16.40;11.20;;;25.60;91.80;;;;;;6164373;23;20956;-85
2021/06/20 01:09:46;;;;;;;20.57;10.57;;;25.70;91.50;;;;;;6163029;23;20765;-85
2021/06/20 01:12:15;;;;;;;16.00;9.63;;;25.70;91.20;;;;;;6165740;23;20422;-85
2021/06/20 01:14:43;;;;;;;20.30;11.80;;;25.80;90.70;;;;;;6165886;23;20410;-85
2021/06/20 01:17:11;;;;;;;19.80;10.30;;;25.90;90.40;;;;;;6165068;23;20483;-85
2021/06/20 01:19:40;;;;;;;20.97;10.50;;;26.00;90.00;;;;;;6165520;23;20436;-85
2021/06/20 01:22:20;;;;;;;18.67;10.87;;;26.00;89.50;;;;;;6165894;23;20448;-85
2021/06/20 01:24:50;;;;;;;22.47;10.83;;;26.00;89.20;;;;;;6164707;23;20445;-85
2021/06/20 01:27:17;;;;;;;13.10;10.20;;;26.10;89.10;;;;;;6165869;23;20463;-85
2021/06/20 01:29:47;;;;;;;19.70;9.60;;;26.10;88.10;;;;;;6164724;23;20484;-86
2021/06/20 01:32:15;;;;;;;14.63;11.03;;;26.20;87.90;;;;;;6166195;23;20433;-85
2021/06/20 01:34:42;;;;;;;23.00;11.03;;;26.20;88.00;;;;;;6164804;23;20408;-85
2021/06/20 01:37:11;;;;;;;19.37;9.77;;;26.20;88.20;;;;;;6166076;23;20402;-85
2021/06/20 01:39:39;;;;;;;16.10;10.73;;;26.20;88.00;;;;;;6179385;23;20437;-83
2021/06/20 01:42:07;;;;;;;20.60;11.77;;;26.20;88.10;;;;;;6181796;23;20424;-84
2021/06/20 01:44:48;;;;;;;18.63;11.13;;;26.20;87.80;;;;;;6182447;23;20496;-84
2021/06/20 01:47:15;;;;;;;21.13;11.20;;;26.20;87.80;;;;;;6181809;23;20408;-84
2021/06/20 01:49:42;;;;;;;21.43;10.57;;;26.10;88.20;;;;;;6181768;23;20445;-85
2021/06/20 01:52:09;;;;;;;26.80;12.43;;;26.00;88.50;;;;;;6182211;23;20423;-84
2021/06/20 01:54:37;;;;;;;18.10;10.50;;;25.90;88.90;;;;;;6182286;23;20393;-84
2021/06/20 01:57:18;;;;;;;16.17;9.93;;;25.90;89.10;;;;;;6183055;23;20381;-85
2021/06/20 01:59:46;;;;;;;16.00;9.80;;;25.90;89.20;;;;;;6182766;23;20435;-85
2021/06/20 02:02:14;;;;;;;19.83;9.03;;;25.80;89.70;;;;;;6182561;23;20472;-85
2021/06/20 02:04:40;;;;;;;15.80;9.30;;;25.70;90.00;;;;;;6183134;23;20453;-85
2021/06/20 02:07:09;;;;;;;22.03;10.70;;;25.70;90.20;;;;;;6182085;23;20498;-85
2021/06/20 02:09:36;;;;;;;18.40;10.00;;;25.60;90.30;;;;;;6166765;23;20416;-85
2021/06/20 02:12:03;;;;;;;16.20;9.77;;;25.60;90.50;;;;;;6168994;23;20403;-84
2021/06/20 02:14:32;;;;;;;18.03;9.57;;;25.60;90.70;;;;;;6181984;23;20438;-85
2021/06/20 02:16:59;;;;;;;19.03;9.67;;;25.60;90.80;;;;;;6173647;23;20422;-85
2021/06/20 02:19:25;;;;;;;20.47;9.80;;;25.50;91.00;;;;;;6169828;23;20431;-85
2021/06/20 02:21:52;;;;;;;17.47;10.07;;;25.50;91.10;;;;;;6168545;23;20431;-86
2021/06/20 02:24:19;;;;;;;19.10;9.67;;;25.50;91.20;;;;;;6174680;23;20395;-86
2021/06/20 02:26:46;;;;;;;22.37;11.77;;;25.60;91.20;;;;;;6182014;23;20423;-85
2021/06/20 02:29:13;;;;;;;20.90;9.53;;;25.50;91.40;;;;;;6182137;23;20434;-85
2021/06/20 02:31:41;;;;;;;16.27;10.43;;;25.40;91.60;;;;;;6182972;23;20480;-85
2021/06/20 02:34:07;;;;;;;18.03;9.70;;;25.40;91.60;;;;;;6182629;23;20420;-85
2021/06/20 02:36:37;;;;;;;17.93;9.33;;;25.40;91.70;;;;;;6182607;23;20432;-85
2021/06/20 02:39:11;;;;;;;18.33;9.33;;;25.30;92.00;;;;;;6182738;23;20399;-84
2021/06/20 02:41:38;;;;;;;14.40;9.87;;;25.30;92.30;;;;;;6182233;23;20414;-85
2021/06/20 02:44:07;;;;;;;21.60;10.23;;;25.30;92.40;;;;;;6182269;23;20434;-85
2021/06/20 02:46:36;;;;;;;17.70;9.00;;;25.20;92.50;;;;;;6173487;23;20447;-85
2021/06/20 02:49:06;;;;;;;22.20;9.97;;;25.30;92.60;;;;;;6160752;23;20440;-85
2021/06/20 02:51:33;;;;;;;26.27;11.17;;;25.30;92.70;;;;;;6159314;23;20448;-85
2021/06/20 02:54:00;;;;;;;18.00;10.10;;;25.20;92.80;;;;;;6159774;23;20410;-85
2021/06/20 02:56:34;;;;;;;19.80;9.90;;;25.10;93.00;;;;;;6158717;23;20410;-85
2021/06/20 02:59:02;;;;;;;16.90;9.50;;;25.10;93.20;;;;;;6159396;23;20415;-85
2021/06/20 03:01:28;;;;;;;18.33;10.47;;;25.10;93.30;;;;;;6162801;23;20419;-85
2021/06/20 03:03:57;;;;;;;18.40;9.23;;;25.10;93.40;;;;;;6164189;23;20439;-84
2021/06/20 03:06:43;;;;;;;19.97;10.10;;;25.10;93.50;;;;;;6164999;23;20497;-85
2021/06/20 03:09:11;;;;;;;18.60;9.80;;;25.00;93.70;;;;;;6162854;23;20943;-85
2021/06/20 03:11:42;;;;;;;24.30;10.00;;;24.90;93.80;;;;;;6164725;23;20421;-85
2021/06/20 03:14:13;;;;;;;18.43;9.97;;;24.90;93.90;;;;;;6164644;23;20446;-84
2021/06/20 03:16:40;;;;;;;13.23;8.67;;;24.90;93.90;;;;;;6163393;23;20418;-85
2021/06/20 03:19:07;;;;;;;18.43;9.80;;;24.90;94.10;;;;;;6163506;23;20419;-84
2021/06/20 03:21:34;;;;;;;17.93;10.90;;;24.90;94.40;;;;;;6162802;23;20495;-84
2021/06/20 03:24:03;;;;;;;19.57;8.30;;;24.90;94.10;;;;;;6163142;23;20403;-84
2021/06/20 03:26:30;;;;;;;19.33;9.40;;;24.90;94.20;;;;;;6162949;23;20447;-85
2021/06/20 03:28:57;;;;;;;20.30;10.20;;;24.90;94.30;;;;;;6164803;23;20486;-85
2021/06/20 03:31:25;;;;;;;16.57;9.93;;;24.90;94.40;;;;;;6163215;23;20431;-84
2021/06/20 03:33:51;;;;;;;15.30;9.00;;;24.80;94.60;;;;;;6161888;23;20415;-85
2021/06/20 03:36:19;;;;;;;16.80;9.90;;;24.80;94.70;;;;;;6161723;23;20891;-85
2021/06/20 03:38:46;;;;;;;13.50;9.57;;;24.80;95.20;;;;;;6162224;23;20504;-85
2021/06/20 03:41:16;;;;;;;14.00;10.10;;;24.80;96.10;;;;;;6161806;23;20808;-85
2021/06/20 03:43:44;;;;;;;16.77;9.40;;;24.80;95.90;;;;;;6162463;23;20385;-85
2021/06/20 03:46:11;;;;;;;12.17;8.73;;;24.70;96.60;;;;;;6162850;23;20821;-85
2021/06/20 03:48:38;;;;;;;20.93;8.90;;;24.70;97.00;;;;;;6162587;23;20421;-85
2021/06/20 03:51:05;;;;;;;14.17;10.37;;;24.70;97.40;;;;;;6163491;23;20436;-85
2021/06/20 03:53:32;;;;;;;14.93;9.30;;;24.70;97.50;;;;;;6162894;23;20412;-84
2021/06/20 03:55:59;;;;;;;17.97;10.23;;;24.70;98.00;;;;;;6165547;23;20494;-85
2021/06/20 03:58:27;;;;;;;22.03;11.33;;;24.60;98.30;;;;;;6172783;23;20500;-83
2021/06/20 04:00:54;;;;;;;16.07;9.40;;;24.40;98.50;;;;;;6173580;23;20463;-84
2021/06/20 04:03:21;;;;;;;14.93;9.53;;;24.40;98.60;;;;;;6172511;23;20416;-84
2021/06/20 04:05:47;;;;;;;16.67;8.90;;;24.30;98.90;;;;;;6169895;23;20503;-85
2021/06/20 04:08:14;;;;;;;11.37;9.80;;;24.30;99.10;;;;;;6165401;23;20457;-85
2021/06/20 04:10:41;;;;;;;14.00;10.43;;;24.20;99.60;;;;;;6167128;23;20489;-85
2021/06/20 04:13:08;;;;;;;13.23;8.43;;;24.10;99.90;;;;;;6166360;23;20407;-84
2021/06/20 04:15:36;;;;;;;13.60;9.50;;;23.90;99.90;;;;;;6166065;23;20413;-83
2021/06/20 04:18:03;;;;;;;18.17;9.70;;;23.90;99.90;;;;;;6163033;23;20560;-84
2021/06/20 04:20:30;;;;;;;14.83;10.20;;;23.80;99.90;;;;;;6163759;23;20426;-84
2021/06/20 04:22:57;;;;;;;14.43;10.00;;;23.90;99.90;;;;;;6165004;23;20425;-84
2021/06/20 04:25:24;;;;;;;15.70;11.30;;;23.90;99.90;;;;;;6165439;23;20455;-85
2021/06/20 04:27:51;;;;;;;12.03;9.93;;;24.00;99.90;;;;;;6165114;23;20416;-85
2021/06/20 04:30:20;;;;;;;21.33;10.27;;;24.10;99.90;;;;;;6162861;23;20435;-85
2021/06/20 04:32:49;;;;;;;13.40;9.17;;;24.10;99.90;;;;;;6160310;23;20411;-84
2021/06/20 04:35:16;;;;;;;12.17;8.67;;;24.10;99.90;;;;;;6161818;23;20780;-85
2021/06/20 04:37:43;;;;;;;16.10;9.47;;;24.20;99.90;;;;;;6164430;23;20490;-84
2021/06/20 04:40:14;;;;;;;18.70;10.40;;;24.30;99.90;;;;;;6163773;23;20757;-85
2021/06/20 04:42:42;;;;;;;17.20;9.07;;;24.20;99.90;;;;;;6165290;23;20419;-84
2021/06/20 04:45:13;;;;;;;16.70;9.87;;;24.30;99.90;;;;;;6166698;23;20950;-84
2021/06/20 04:47:41;;;;;;;14.63;10.30;;;24.40;99.90;;;;;;6166515;23;20400;-84
2021/06/20 04:50:31;;;;;;;17.87;9.80;;;24.40;99.90;;;;;;6165543;23;20433;-84
2021/06/20 04:52:58;;;;;;;14.87;9.67;;;24.40;99.90;;;;;;6164977;23;21036;-85
2021/06/20 04:55:25;;;;;;;14.57;8.87;;;24.50;99.90;;;;;;6166064;23;20414;-84
2021/06/20 04:57:52;;;;;;;12.17;9.70;;;24.50;99.90;;;;;;6166309;23;20422;-85
2021/06/20 05:00:19;;;;;;;10.87;7.40;;;24.50;99.90;;;;;;6165575;23;20492;-85
2021/06/20 05:02:47;;;;;;;9.73;8.73;;;24.50;99.90;;;;;;6165317;23;20412;-84
2021/06/20 05:05:15;;;;;;;15.40;8.50;;;24.50;99.90;;;;;;6166611;23;20426;-85
2021/06/20 05:07:42;;;;;;;15.10;9.50;;;24.60;99.90;;;;;;6166246;23;20416;-84
2021/06/20 05:10:10;;;;;;;18.67;8.33;;;24.60;99.90;;;;;;6166714;23;20814;-85
2021/06/20 05:12:37;;;;;;;16.37;7.80;;;24.60;99.90;;;;;;6174761;23;20411;-84
2021/06/20 05:15:06;;;;;;;12.73;9.10;;;24.60;99.90;;;;;;6177859;23;20480;-85
2021/06/20 05:17:33;;;;;;;15.57;8.87;;;24.60;99.90;;;;;;6165121;23;20498;-84
2021/06/20 05:20:00;;;;;;;19.73;8.80;;;24.60;99.90;;;;;;6163554;23;20434;-85
2021/06/20 05:22:28;;;;;;;11.73;8.97;;;24.60;99.90;;;;;;6163531;23;20433;-85
2021/06/20 05:24:55;;;;;;;13.23;7.47;;;24.60;99.90;;;;;;6164266;23;20417;-85
2021/06/20 05:27:23;;;;;;;9.70;7.17;;;24.60;99.90;;;;;;6164898;23;20444;-85
2021/06/20 05:29:50;;;;;;;10.13;7.23;;;24.60;99.90;;;;;;6164776;23;20436;-85
2021/06/20 05:32:17;;;;;;;14.23;6.93;;;24.60;99.90;;;;;;6166382;23;20423;-85
2021/06/20 05:34:44;;;;;;;14.77;6.57;;;24.50;99.90;;;;;;6166610;23;20808;-85
2021/06/20 05:37:10;;;;;;;15.30;7.97;;;24.50;99.90;;;;;;6166348;23;20407;-85
2021/06/20 05:39:41;;;;;;;9.47;6.50;;;24.50;99.90;;;;;;6166113;23;20473;-85
2021/06/20 05:42:08;;;;;;;9.60;5.97;;;24.60;99.90;;;;;;6169226;23;20403;-84
2021/06/20 05:44:35;;;;;;;8.97;6.37;;;24.50;99.90;;;;;;6173493;23;20411;-85
2021/06/20 05:47:02;;;;;;;9.90;6.77;;;24.50;99.90;;;;;;6169019;23;20481;-85
2021/06/20 05:49:29;;;;;;;9.07;4.93;;;24.50;99.90;;;;;;6166624;23;20887;-85
2021/06/20 05:51:56;;;;;;;10.40;6.37;;;24.60;99.90;;;;;;6166412;23;20422;-85
2021/06/20 05:54:23;;;;;;;11.27;6.63;;;24.70;99.90;;;;;;6166362;23;20419;-85
2021/06/20 05:56:53;;;;;;;12.43;6.77;;;24.70;99.90;;;;;;6166120;23;20979;-85
2021/06/20 05:59:19;;;;;;;9.27;5.53;;;24.80;99.30;;;;;;6166066;23;20409;-84
2021/06/20 06:01:46;;;;;;;8.10;6.13;;;24.90;99.10;;;;;;6163136;23;20448;-83
2021/06/20 06:04:13;;;;;;;8.73;6.07;;;25.00;98.70;;;;;;6162627;23;20414;-83
2021/06/20 06:06:40;;;;;;;8.73;5.33;;;25.00;98.00;;;;;;6162888;23;20451;-83
2021/06/20 06:09:06;;;;;;;8.77;4.53;;;25.10;98.00;;;;;;6162276;23;20753;-83
2021/06/20 06:11:33;;;;;;;8.73;5.43;;;25.20;97.60;;;;;;6162542;23;20437;-83
2021/06/20 06:14:04;;;;;;;8.13;5.00;;;25.30;97.40;;;;;;6162228;23;20754;-83
2021/06/20 06:16:30;;;;;;;5.53;3.97;;;25.40;97.50;;;;;;6162338;23;20481;-83
2021/06/20 06:18:57;;;;;;;9.50;5.07;;;25.40;97.20;;;;;;6162409;23;20497;-83
2021/06/20 06:21:24;;;;;;;11.60;5.77;;;25.50;97.00;;;;;;6161446;23;20435;-83
2021/06/20 06:23:51;;;;;;;6.17;4.47;;;25.50;96.80;;;;;;6162304;23;20392;-83
2021/06/20 06:26:17;;;;;;;9.20;5.77;;;25.60;97.00;;;;;;6162162;23;20453;-83
2021/06/20 06:28:44;;;;;;;5.30;4.60;;;25.60;96.80;;;;;;6162187;23;20473;-83
2021/06/20 06:31:12;;;;;;;5.80;4.70;;;25.60;96.40;;;;;;6161821;23;20439;-83
2021/06/20 06:33:39;;;;;;;6.13;4.53;;;25.60;95.60;;;;;;6161871;23;20472;-83
2021/06/20 06:36:06;;;;;;;11.70;4.70;;;25.60;95.80;;;;;;6162689;23;20458;-83
2021/06/20 06:38:33;;;;;;;5.83;4.50;;;25.60;95.90;;;;;;6161543;23;20414;-83
2021/06/20 06:41:00;;;;;;;10.80;6.60;;;25.70;96.20;;;;;;6161727;23;20737;-83
2021/06/20 06:43:26;;;;;;;7.30;4.60;;;25.80;96.00;;;;;;6161937;23;20412;-83
2021/06/20 06:45:53;;;;;;;8.53;5.03;;;26.00;95.40;;;;;;6162421;23;20429;-83
2021/06/20 06:48:21;;;;;;;7.93;3.93;;;26.10;95.10;;;;;;6162169;23;20414;-84
2021/06/20 06:50:48;;;;;;;6.83;4.47;;;26.10;94.50;;;;;;6161319;23;20523;-85
2021/06/20 06:53:15;;;;;;;7.07;3.93;;;26.20;94.40;;;;;;6161014;23;20428;-83
2021/06/20 06:55:41;;;;;;;6.70;5.47;;;26.20;94.60;;;;;;6161965;23;20504;-83
2021/06/20 06:58:08;;;;;;;9.13;4.70;;;26.30;94.80;;;;;;6162612;23;20741;-83
2021/06/20 07:00:35;;;;;;;8.03;4.47;;;26.30;94.90;;;;;;6161979;23;20812;-82
2021/06/20 07:03:02;;;;;;;7.33;5.03;;;26.30;95.40;;;;;;6161056;23;20418;-83
2021/06/20 07:05:31;;;;;;;7.30;3.80;;;26.50;94.60;;;;;;6161664;23;20425;-83
2021/06/20 07:07:58;;;;;;;5.60;4.63;;;26.50;94.40;;;;;;6161443;23;20454;-83
2021/06/20 07:10:25;;;;;;;9.23;4.20;;;26.60;93.80;;;;;;6161611;23;21014;-83
2021/06/20 07:12:51;;;;;;;7.20;5.03;;;26.60;93.70;;;;;;6161224;23;20418;-83
2021/06/20 07:15:18;;;;;;;7.63;4.70;;;26.60;94.00;;;;;;6161921;23;20412;-83
2021/06/20 07:17:45;;;;;;;5.20;4.70;;;26.70;94.30;;;;;;6161114;23;20408;-83
2021/06/20 07:20:16;;;;;;;6.87;5.03;;;26.70;94.50;;;;;;6161369;23;20493;-83
2021/06/20 07:22:45;;;;;;;10.13;6.53;;;26.80;94.80;;;;;;6160996;23;20768;-83
2021/06/20 07:25:13;;;;;;;13.10;5.57;;;26.90;95.30;;;;;;6162696;23;20715;-83
2021/06/20 07:27:41;;;;;;;10.40;5.23;;;27.00;93.70;;;;;;6162699;23;20448;-83
2021/06/20 07:30:11;;;;;;;8.97;5.10;;;27.10;93.30;;;;;;6161990;23;20441;-82
2021/06/20 07:32:38;;;;;;;6.07;4.43;;;27.10;93.50;;;;;;6161681;23;20420;-83
2021/06/20 07:35:07;;;;;;;6.60;5.47;;;27.20;93.30;;;;;;6161496;23;20503;-82
2021/06/20 07:37:34;;;;;;;7.90;5.50;;;27.20;93.00;;;;;;6161804;23;20408;-84
2021/06/20 07:40:07;;;;;;;7.80;5.20;;;27.30;93.60;;;;;;6161731;23;20925;-84
2021/06/20 07:42:34;;;;;;;7.00;5.33;;;27.30;93.90;;;;;;6161874;23;20392;-84
2021/06/20 07:45:01;;;;;;;5.27;4.40;;;27.40;93.40;;;;;;6162156;23;20514;-84
2021/06/20 07:47:27;;;;;;;7.60;5.30;;;27.50;93.10;;;;;;6162027;23;20453;-85
2021/06/20 07:49:54;;;;;;;7.17;4.10;;;27.50;93.60;;;;;;6161188;23;20438;-84
2021/06/20 07:52:21;;;;;;;9.63;4.83;;;27.50;92.90;;;;;;6161610;23;20450;-84
2021/06/20 07:54:50;;;;;;;8.90;5.23;;;27.60;92.90;;;;;;6161484;23;20443;-84
2021/06/20 07:57:19;;;;;;;11.80;5.90;;;27.60;92.20;;;;;;6162792;23;20472;-84
2021/06/20 07:59:51;;;;;;;9.00;6.00;;;27.60;92.70;;;;;;6162342;23;20441;-84
2021/06/20 08:02:18;;;;;;;8.30;4.63;;;27.70;92.50;;;;;;6162038;23;20759;-84
2021/06/20 08:04:46;;;;;;;5.10;4.70;;;27.80;92.30;;;;;;6162269;23;20423;-82
2021/06/20 08:07:13;;;;;;;7.40;5.00;;;27.90;92.00;;;;;;6162707;23;20444;-82
2021/06/20 08:09:40;;;;;;;6.10;4.57;;;28.00;91.50;;;;;;6161765;23;20416;-83
2021/06/20 08:12:08;;;;;;;5.80;5.30;;;28.00;91.60;;;;;;6161854;23;20408;-82
2021/06/20 08:14:37;;;;;;;7.87;4.40;;;28.10;91.80;;;;;;6161668;23;20416;-82
2021/06/20 08:17:04;;;;;;;7.67;4.90;;;28.20;91.30;;;;;;6168964;23;20467;-82
2021/06/20 08:19:31;;;;;;;7.27;4.77;;;28.20;90.80;;;;;;6170677;23;20411;-82
2021/06/20 08:21:58;;;;;;;6.47;4.30;;;28.30;90.80;;;;;;6162993;23;20769;-84
2021/06/20 08:24:25;;;;;;;8.70;5.60;;;28.30;90.60;;;;;;6161904;23;20425;-85
2021/06/20 08:26:52;;;;;;;9.37;5.53;;;28.40;90.90;;;;;;6161861;23;20518;-85
2021/06/20 08:29:18;;;;;;;6.70;4.10;;;28.30;90.50;;;;;;6164345;23;20409;-85
2021/06/20 08:31:46;;;;;;;7.20;5.00;;;28.30;90.30;;;;;;6163237;23;20435;-83
2021/06/20 08:34:13;;;;;;;8.20;5.50;;;28.30;90.70;;;;;;6163302;23;20477;-85
2021/06/20 08:36:40;;;;;;;4.97;4.47;;;28.30;90.50;;;;;;6163544;23;20498;-85
2021/06/20 08:39:08;;;;;;;8.43;5.10;;;28.30;90.50;;;;;;6161060;23;20412;-85
2021/06/20 08:41:41;;;;;;;7.63;5.73;;;28.40;90.20;;;;;;6163020;23;20433;-85
2021/06/20 08:44:16;;;;;;;6.97;4.17;;;28.50;90.20;;;;;;6164931;23;20764;-84
2021/06/20 08:46:43;;;;;;;6.00;4.63;;;28.50;89.70;;;;;;6162935;23;20456;-86
2021/06/20 08:49:13;;;;;;;7.20;5.17;;;28.60;89.40;;;;;;6163934;23;20414;-86
2021/06/20 08:51:40;;;;;;;7.93;5.27;;;28.70;90.00;;;;;;6160015;23;20501;-85
2021/06/20 08:54:09;;;;;;;6.27;4.47;;;28.70;90.00;;;;;;6160714;23;20429;-84
2021/06/20 08:56:36;;;;;;;6.67;4.63;;;28.80;90.40;;;;;;6160167;23;20433;-85
2021/06/20 08:59:04;;;;;;;11.53;5.53;;;29.00;88.30;;;;;;6162191;23;20488;-85
2021/06/20 09:01:32;;;;;;;10.23;5.87;;;29.10;88.00;;;;;;6163661;23;20895;-85
2021/06/20 09:03:59;;;;;;;9.37;5.20;;;29.10;88.30;;;;;;6162928;23;20422;-85
2021/06/20 09:12:19;;;;;;;14.33;6.37;;;29.30;85.90;;;;;;6159793;23;20465;-85
2021/06/20 09:19:17;;;;;;;6.53;5.37;;;29.40;86.30;;;;;;5981640;24;20416;-85
2021/06/20 09:22:16;;;;;;;9.13;5.23;;;29.40;85.90;;;;;;6122710;23;20431;-85
2021/06/20 09:24:46;;;;;;;8.27;4.77;;;29.50;86.70;;;;;;6160808;23;20861;-85
2021/06/20 09:27:15;;;;;;;8.60;5.77;;;29.60;86.20;;;;;;6165164;23;20453;-84
2021/06/20 09:33:20;;;;;;;6.03;5.10;;;29.70;85.20;;;;;;6027733;23;20445;-85
2021/06/20 09:39:27;;;;;;;6.00;5.40;;;29.80;84.70;;;;;;6023282;23;20414;-84
2021/06/20 09:42:29;;;;;;;4.30;3.90;;;29.90;83.90;;;;;;6051848;23;20439;-85
2021/06/20 09:45:00;;;;;;;5.60;3.80;;;30.00;79.30;;;;;;6040753;23;20393;-84
2021/06/20 09:47:43;;;;;;;4.53;3.30;;;30.10;79.30;;;;;;6041702;23;20471;-85
2021/06/20 09:50:42;;;;;;;4.70;3.73;;;30.30;76.10;;;;;;6146615;23;20461;-84
2021/06/20 09:53:59;;;;;;;4.30;3.03;;;30.40;72.00;;;;;;6158427;23;20390;-85
2021/06/20 09:56:28;;;;;;;6.17;3.40;;;30.40;72.20;;;;;;6083062;23;20419;-85
2021/06/20 10:14:52;;;;;;;5.93;3.10;;;30.70;69.80;;;;;;6155866;23;20446;-84
2021/06/20 10:31:16;;;;;;;4.47;3.07;;;30.40;70.80;;;;;;5952434;24;20824;-85
2021/06/20 10:33:45;;;;;;;6.50;3.53;;;30.40;69.80;;;;;;5952907;24;20489;-85
2021/06/20 10:36:37;;;;;;;4.23;3.30;;;30.40;70.90;;;;;;5953734;24;20504;-85
2021/06/20 11:00:08;;;;;;;7.07;3.80;;;31.10;70.90;;;;;;5891153;24;20434;-85
2021/06/20 11:07:15;;;;;;;4.13;3.73;;;31.30;71.80;;;;;;5817755;24;20786;-87
2021/06/20 11:14:07;;;;;;;6.53;4.10;;;31.70;71.70;;;;;;5717425;25;20438;-88
2021/06/20 11:19:55;;;;;;;;;;;;;;;;;;;;;
2021/06/20 11:22:26;;;;;;;5.87;3.97;;;32.90;70.20;;;;;;6007959;23;20513;-85
2021/06/20 11:24:54;;;;;;;6.70;3.97;;;33.40;69.30;;;;;;6009861;23;20439;-84
2021/06/20 11:27:25;;;;;;;7.73;4.60;;;33.80;67.00;;;;;;6027674;23;20510;-83
2021/06/20 11:29:54;;;;;;;7.90;3.73;;;34.30;68.70;;;;;;6033498;23;20435;-84
2021/06/20 11:32:24;;;;;;;7.87;3.10;;;34.70;60.00;;;;;;6139694;23;20391;-85
2021/06/20 11:34:53;;;;;;;4.67;3.73;;;35.10;59.90;;;;;;6140891;23;20423;-85
2021/06/20 11:37:23;;;;;;;5.30;3.70;;;35.40;60.20;;;;;;6141342;23;20408;-84
2021/06/20 11:39:50;;;;;;;7.57;4.03;;;35.80;59.90;;;;;;6140837;23;20761;-85
2021/06/20 11:42:25;;;;;;;6.00;4.30;;;36.30;58.00;;;;;;6135199;23;20412;-86
2021/06/20 11:44:57;;;;;;;5.77;3.80;;;36.80;58.10;;;;;;6128920;23;20396;-85
2021/06/20 11:47:32;;;;;;;5.87;4.03;;;37.30;56.90;;;;;;6128706;23;20946;-85
2021/06/20 11:50:11;;;;;;;4.93;3.40;;;37.70;52.90;;;;;;6127931;23;20514;-85
2021/06/20 11:52:38;;;;;;;9.77;4.20;;;37.80;53.20;;;;;;6126153;23;20396;-84
2021/06/20 11:55:14;;;;;;;6.00;4.07;;;37.90;54.50;;;;;;6126104;23;20911;-85
2021/06/20 11:57:40;;;;;;;6.77;3.93;;;38.10;52.80;;;;;;6126739;23;20403;-84
2021/06/20 12:00:13;;;;;;;4.40;3.93;;;38.30;51.60;;;;;;6126091;23;20446;-85
2021/06/20 12:02:42;;;;;;;8.23;4.17;;;38.40;51.40;;;;;;6126435;23;20470;-85
2021/06/20 12:05:13;;;;;;;11.33;5.27;;;38.30;50.20;;;;;;6126108;23;20415;-85
2021/06/20 12:07:40;;;;;;;6.53;4.60;;;38.30;51.00;;;;;;6126246;23;20432;-85
2021/06/20 12:10:08;;;;;;;6.53;4.80;;;38.60;51.10;;;;;;6126009;23;20436;-84
2021/06/20 12:12:38;;;;;;;6.50;3.87;;;38.80;49.70;;;;;;6127584;23;20471;-85
2021/06/20 12:15:06;;;;;;;8.40;5.37;;;39.10;48.10;;;;;;6157076;23;20998;-85
2021/06/20 12:17:33;;;;;;;5.97;4.43;;;39.40;49.80;;;;;;6156084;23;20410;-85
2021/06/20 12:20:01;;;;;;;8.27;4.83;;;39.70;48.40;;;;;;6156206;23;20430;-85
2021/06/20 12:22:28;;;;;;;10.40;5.10;;;39.80;46.60;;;;;;6155855;23;20419;-86
2021/06/20 12:24:57;;;;;;;10.10;4.70;;;39.90;46.00;;;;;;6156083;23;20422;-85
2021/06/20 12:27:34;;;;;;;8.27;4.63;;;40.00;45.00;;;;;;6156468;23;20414;-85
2021/06/20 12:30:13;;;;;;;6.30;4.47;;;39.90;46.80;;;;;;6158658;23;20485;-86
2021/06/20 12:32:39;;;;;;;5.50;4.60;;;40.00;45.50;;;;;;6157530;23;20399;-85
2021/06/20 12:35:18;;;;;;;11.30;5.30;;;40.20;45.90;;;;;;6156594;23;20429;-85
2021/06/20 12:37:47;;;;;;;11.23;5.57;;;40.70;44.50;;;;;;6157668;23;20466;-84
2021/06/20 12:40:23;;;;;;;7.43;5.07;;;40.90;43.30;;;;;;6157479;23;20430;-85
2021/06/20 12:43:14;;;;;;;;;;;;;;;;;;;;;
2021/06/20 12:49:42;;;;;;;;;;;;;;;;;;;;;
2021/06/20 12:52:48;;;;;;;9.30;4.40;;;42.30;42.40;;;;;;6152640;23;20526;-86
2021/06/20 13:05:21;;;;;;;;;;;;;;;;;;;;;
2021/06/20 13:07:50;;;;;;;8.00;5.50;;;43.10;38.70;;;;;;6156665;23;20449;-86
2021/06/20 13:10:48;;;;;;;11.40;5.97;;;42.70;38.50;;;;;;6156389;23;20495;-86
2021/06/20 13:13:48;;;;;;;16.27;5.37;;;42.60;38.20;;;;;;6151009;23;20971;-87
2021/06/20 13:16:26;;;;;;;12.80;5.57;;;42.50;39.40;;;;;;6155518;23;20868;-85
2021/06/20 13:19:28;;;;;;;;;;;;;;;;;;;;;
2021/06/20 13:31:56;;;;;;;;;;;;;;;;;;;;;
2021/06/20 13:41:33;;;;;;;9.77;6.13;;;42.20;38.20;;;;;;5817738;24;20957;-86
2021/06/20 13:47:18;;;;;;;10.90;5.70;;;41.50;40.00;;;;;;5986953;23;20418;-86
2021/06/20 13:49:47;;;;;;;13.13;6.53;;;41.80;38.80;;;;;;6066538;23;20479;-86
2021/06/20 13:52:23;;;;;;;;;;;;;;;;;;;;;
2021/06/20 14:17:39;;;;;;;14.40;6.53;;;44.00;33.50;;;;;;6126087;23;20388;-85
2021/06/20 14:20:30;;;;;;;16.30;6.40;;;43.20;34.00;;;;;;6019122;23;20439;-85
2021/06/20 14:22:59;;;;;;;9.57;6.80;;;42.40;35.70;;;;;;5990916;23;20424;-85
2021/06/20 14:52:22;;;;;;;13.80;6.17;;;36.50;43.00;;;;;;5744833;24;20443;-85
2021/06/20 14:54:53;;;;;;;14.80;5.77;;;36.10;44.00;;;;;;6015212;23;20425;-84
2021/06/20 14:57:20;;;;;;;13.37;6.20;;;35.80;45.10;;;;;;6133495;23;20400;-84
2021/06/20 14:59:47;;;;;;;15.83;7.90;;;35.50;45.30;;;;;;6133506;23;20475;-85
2021/06/20 15:02:14;;;;;;;13.00;6.43;;;35.20;45.50;;;;;;6133475;23;20483;-86
2021/06/20 15:04:41;;;;;;;18.07;5.90;;;35.00;46.60;;;;;;6131539;23;20962;-84
2021/06/20 15:07:07;;;;;;;13.23;6.90;;;34.80;47.30;;;;;;6132098;23;20426;-85
2021/06/20 15:09:34;;;;;;;13.33;5.60;;;34.60;47.00;;;;;;6130902;23;20483;-85
2021/06/20 15:12:04;;;;;;;13.17;7.17;;;34.50;47.10;;;;;;6130605;23;20412;-85
2021/06/20 15:14:30;;;;;;;13.87;7.40;;;34.20;47.10;;;;;;6147473;23;20426;-83
2021/06/20 15:16:57;;;;;;;12.50;6.87;;;34.10;49.30;;;;;;6158054;23;20478;-85
2021/06/20 15:19:24;;;;;;;18.03;8.23;;;34.00;49.70;;;;;;6157639;23;20488;-84
2021/06/20 15:21:51;;;;;;;13.70;6.30;;;33.90;49.60;;;;;;6157520;23;20755;-85
2021/06/20 15:24:17;;;;;;;17.93;7.43;;;33.80;50.70;;;;;;6157613;23;20418;-85
2021/06/20 15:26:45;;;;;;;15.77;7.00;;;33.60;50.50;;;;;;6156988;23;20418;-82
2021/06/20 15:29:13;;;;;;;12.80;6.03;;;33.40;49.50;;;;;;6160553;23;20453;-84
2021/06/20 15:31:41;;;;;;;15.90;7.77;;;33.20;49.70;;;;;;6159274;23;20584;-84
2021/06/20 15:34:08;;;;;;;16.77;7.70;;;33.00;50.10;;;;;;6159939;23;20453;-83
2021/06/20 15:36:35;;;;;;;14.93;7.00;;;32.90;50.40;;;;;;6159587;23;20497;-84
2021/06/20 15:39:02;;;;;;;16.13;6.70;;;32.70;51.40;;;;;;6159133;23;20439;-84
2021/06/20 15:41:32;;;;;;;17.40;7.80;;;32.50;52.20;;;;;;6158398;23;20440;-84